Latest Weather Observations for Kadina

IDS60801

Issued at 11:31 pm CST Tuesday 28 April 2015 (issued every 30 minutes, with the page automatically refreshed every 10 minutes)

About weather observations | Map of weather stations | Latest weather observations for SA | Other Formats
Station Details ID: 022050 Name: KADINA AWS Lat: -33.97 Lon: 137.66 Height: 41.14 m
Data from the previous 72 hours. | See also: Recent months at Kadina
Date/Time
CST
Temp
°C
App
Temp
°C
Dew
Point
Rel
Hum
%
Delta-T
°C
Wind Press
QNH
hPa
Press
MSL
hPa
Rain
since 9 am
mm
Dir
 
Spd
km/h
Gust
km/h
Spd
kts
Gust
kts
28/11:30pm 6.1 2.1 4.9 92 0.5 ESE 15 17 8 9 1029.9 - 0.0
28/11:00pm 7.7 3.7 6.5 92 0.5 ESE 17 19 9 10 1029.8 - 0.0
28/10:30pm 6.9 2.8 6.0 94 0.4 E 17 17 9 9 1029.9 - 0.0
28/10:00pm 7.3 4.3 5.9 91 0.6 ESE 11 13 6 7 1029.8 - 0.0
28/09:30pm 8.4 5.2 6.9 90 0.7 SE 13 15 7 8 1029.7 - 0.0
28/09:00pm 8.7 5.9 6.8 88 0.9 SE 11 13 6 7 1029.5 1029.3 0.0
28/08:30pm 10.3 7.0 8.1 86 1.1 SE 15 17 8 9 1029.4 - 0.0
28/08:00pm 11.5 8.7 8.4 81 1.5 SE 13 15 7 8 1029.3 - 0.0
28/07:30pm 12.6 9.6 9.1 79 1.8 SE 15 19 8 10 1029.1 - 0.0
28/07:00pm 13.4 10.3 8.7 73 2.4 SE 15 19 8 10 1029.0 - 0.0
28/06:30pm 13.9 10.7 8.5 70 2.7 SSE 15 20 8 11 1028.8 - 0.0
28/06:00pm 14.3 11.3 7.6 64 3.3 SE 13 17 7 9 1028.5 1028.3 0.0
28/05:30pm 14.9 11.7 8.6 66 3.2 S 15 20 8 11 1028.2 - 0.0
28/05:00pm 15.0 11.3 9.4 69 2.9 SSW 19 24 10 13 1028.1 - 0.0
28/04:30pm 15.4 11.4 9.1 66 3.2 SSW 20 28 11 15 1028.0 - 0.0
28/04:00pm 15.2 10.8 9.1 67 3.1 SSW 22 30 12 16 1027.9 - 0.0
28/03:30pm 15.9 12.1 9.1 64 3.5 SW 19 30 10 16 1027.8 - 0.0
28/03:00pm 17.6 14.5 9.0 57 4.4 SW 15 24 8 13 1027.9 1027.7 0.0
28/02:30pm 15.9 12.5 7.7 58 4.1 SW 15 20 8 11 1028.0 - 0.0
28/02:00pm 15.9 12.6 7.9 59 4.0 SSE 15 32 8 17 1028.3 - 0.0
28/01:30pm 16.7 13.5 8.4 58 4.2 WSW 15 22 8 12 1028.4 - 0.0
28/01:00pm 16.4 13.7 7.3 55 4.5 SSE 11 20 6 11 1029.0 - 0.0
28/12:30pm 16.7 14.5 7.9 56 4.5 S 9 13 5 7 1029.4 - 0.0
28/12:00pm 16.2 14.0 7.7 57 4.2 SSW 9 15 5 8 1029.8 1029.6 0.0
28/11:30am 16.5 13.8 7.4 55 4.5 WSW 11 19 6 10 1030.2 - 0.0
28/11:00am 15.8 12.6 8.5 62 3.7 SE 15 20 8 11 1030.5 - 0.0
28/10:30am 15.1 11.2 8.6 65 3.3 SSE 19 28 10 15 1030.8 - 0.0
28/10:00am 15.8 13.0 9.9 68 3.1 ESE 15 20 8 11 1030.8 - 0.0
28/09:30am 15.0 13.0 10.0 72 2.6 SE 11 15 6 8 1030.9 - 0.0
28/09:00am 13.4 11.6 9.5 77 2.0 ESE 9 13 5 7 1031.0 1030.8 0.2
28/08:30am 12.8 11.5 9.8 82 1.5 ESE 7 11 4 6 1030.9 - 0.2
28/08:00am 9.4 7.7 8.3 93 0.5 ESE 7 11 4 6 1030.6 - 0.2
28/07:30am 6.7 3.7 6.1 96 0.3 SE 11 15 6 8 1030.3 - 0.2
28/07:00am 4.5 1.4 3.6 94 0.4 ESE 9 13 5 7 1030.0 - 0.2
28/06:30am 5.4 1.7 4.5 94 0.4 SE 13 15 7 8 1029.8 - 0.2
28/06:00am 5.6 1.6 4.7 94 0.4 SE 15 17 8 9 1029.6 1029.4 0.2
28/05:30am 7.0 4.7 5.9 93 0.5 SE 7 11 4 6 1029.4 - 0.2
28/05:00am 7.5 4.9 6.0 90 0.7 ESE 9 11 5 6 1029.1 - 0.2
28/04:30am 9.5 6.9 7.6 88 0.9 SE 11 13 6 7 1029.0 - 0.2
28/04:00am 10.6 8.3 8.9 89 0.8 SE 11 13 6 7 1029.0 - 0.2
28/03:30am 10.7 8.4 9.0 89 0.8 SSE 11 11 6 6 1028.9 - 0.2
28/03:00am 11.1 9.7 9.5 90 0.8 SSW 7 7 4 4 1029.0 1028.8 0.2
28/02:30am 11.0 9.8 9.6 91 0.7 S 6 9 3 5 1029.0 - 0.2
28/02:00am 11.3 10.5 9.6 89 0.9 S 4 7 2 4 1029.0 - 0.2
28/01:30am 11.2 9.8 9.5 89 0.9 ESE 7 11 4 6 1028.9 - 0.2
28/01:00am 11.5 9.0 9.6 88 1.0 ESE 13 20 7 11 1028.8 - 0.2
28/12:30am 11.4 9.3 9.8 90 0.8 S 11 13 6 7 1028.9 - 0.2
28/12:00am 11.4 9.4 10.0 91 0.7 S 11 13 6 7 1029.0 1028.8 0.2
 
Date/Time
CST
Temp
°C
App
Temp
°C
Dew
Point
Rel
Hum
%
Delta-T
°C
Wind Press
QNH
hPa
Press
MSL
hPa
Rain
since 9 am
mm
Dir
 
Spd
km/h
Gust
km/h
Spd
kts
Gust
kts
27/11:30pm 11.4 9.4 10.3 93 0.6 SSE 11 13 6 7 1029.0 - 0.2
27/11:00pm 11.4 9.6 10.8 96 0.3 SSE 11 15 6 8 1029.3 - 0.2
27/10:30pm 10.8 8.8 10.3 97 0.3 S 11 13 6 7 1029.4 - 0.2
27/10:00pm 9.9 8.4 9.3 96 0.3 SSW 7 7 4 4 1029.3 - 0.2
27/09:30pm 9.4 7.8 8.6 95 0.4 S 7 7 4 4 1029.1 - 0.2
27/09:00pm 9.4 7.4 8.5 94 0.4 S 9 9 5 5 1029.0 1028.8 0.2
27/08:30pm 9.9 7.9 8.8 93 0.5 SSW 9 9 5 5 1029.0 - 0.2
27/08:00pm 11.7 10.6 10.6 93 0.6 SW 7 9 4 5 1029.0 - 0.2
27/07:30pm 12.2 11.5 11.3 94 0.5 SW 6 7 3 4 1028.8 - 0.2
27/07:00pm 12.2 10.9 11.3 94 0.5 SW 9 11 5 6 1028.6 - 0.2
27/06:30pm 12.2 10.9 11.1 93 0.6 SSW 9 11 5 6 1028.4 - 0.2
27/06:00pm 12.4 10.7 11.3 93 0.6 SSE 11 15 6 8 1028.4 1028.2 0.2
27/05:30pm 13.0 9.7 10.9 87 1.1 SSE 19 24 10 13 1028.2 - 0.0
27/05:00pm 14.0 10.6 10.6 80 1.8 SSE 19 26 10 14 1028.0 - 0.0
27/04:30pm 15.4 10.6 10.4 72 2.6 SW 26 32 14 17 1027.6 - 0.0
27/04:00pm 16.0 11.5 8.5 61 3.8 SW 22 30 12 16 1027.5 - 0.0
27/03:30pm 16.3 11.2 7.8 57 4.3 SW 24 33 13 18 1027.4 - 0.0
27/03:00pm 16.7 11.6 7.6 55 4.5 SW 24 30 13 16 1027.3 1027.1 0.0
27/02:30pm 17.1 12.6 6.3 49 5.3 SSW 19 28 10 15 1027.3 - 0.0
27/02:00pm 17.3 12.2 6.2 48 5.4 SSW 22 30 12 16 1027.2 - 0.0
27/01:30pm 17.0 11.9 5.9 48 5.4 SSW 22 30 12 16 1027.2 - 0.0
27/01:00pm 17.5 12.4 5.8 46 5.7 S 22 30 12 16 1027.4 - 0.0
27/12:30pm 17.9 13.8 4.5 41 6.4 S 15 20 8 11 1027.9 - 0.0
27/12:00pm 18.0 14.1 5.2 43 6.1 S 15 24 8 13 1028.3 1028.1 0.0
27/11:30am 16.8 11.9 4.2 43 5.9 SSW 19 28 10 15 1028.6 - 0.0
27/11:00am 17.0 12.9 4.3 43 6.0 S 15 26 8 14 1028.9 - 0.0
27/10:30am 16.1 10.8 3.2 42 5.9 S 20 30 11 16 1029.1 - 0.0
27/10:00am 16.1 11.7 4.5 46 5.4 SSW 17 24 9 13 1029.0 - 0.0
27/09:30am 15.4 10.3 3.9 46 5.3 S 20 28 11 15 1029.1 - 0.0
27/09:00am 15.0 9.8 3.8 47 5.1 S 20 28 11 15 1029.0 1028.8 0.0
27/08:30am 14.6 10.3 5.1 53 4.5 S 17 22 9 12 1028.8 - 0.0
27/08:00am 13.6 9.7 5.5 58 3.8 SSE 15 20 8 11 1028.5 - 0.0
27/07:30am 12.2 9.6 7.9 75 2.1 S 11 13 6 7 1028.2 - 0.0
27/07:00am 12.0 9.4 7.7 75 2.1 S 11 13 6 7 1027.8 - 0.0
27/06:30am 12.1 9.4 7.2 72 2.4 S 11 13 6 7 1027.7 - 0.0
27/06:00am 12.5 9.3 7.0 69 2.6 S 13 15 7 8 1027.6 1027.4 0.0
27/05:30am 12.7 9.4 6.3 65 3.0 SSE 13 15 7 8 1027.4 - 0.0
27/05:00am 12.6 9.1 7.1 69 2.7 S 15 22 8 12 1027.2 - 0.0
27/04:30am 12.2 9.2 7.7 74 2.2 S 13 17 7 9 1027.0 - 0.0
27/04:00am 12.2 9.3 8.3 77 1.9 S 13 15 7 8 1026.8 - 0.0
27/03:30am 12.4 9.6 8.5 77 1.9 SSE 13 17 7 9 1026.9 - 0.0
27/03:00am 12.7 8.7 8.4 75 2.1 SE 19 24 10 13 1026.9 1026.7 0.0
27/02:30am 12.9 8.7 8.4 74 2.2 SSE 20 26 11 14 1027.1 - 0.0
27/02:00am 12.6 10.0 7.7 72 2.4 SE 11 17 6 9 1027.1 - 0.0
27/01:30am 12.5 10.2 7.4 71 2.5 SSE 9 13 5 7 1027.1 - 0.0
27/01:00am 12.9 10.3 7.6 70 2.6 SSE 11 15 6 8 1027.0 - 0.0
27/12:30am 12.9 10.4 8.0 72 2.4 SSE 11 15 6 8 1027.1 - 0.0
27/12:00am 13.0 10.3 7.2 68 2.8 S 11 13 6 7 1027.3 1027.1 0.0
 
Date/Time
CST
Temp
°C
App
Temp
°C
Dew
Point
Rel
Hum
%
Delta-T
°C
Wind Press
QNH
hPa
Press
MSL
hPa
Rain
since 9 am
mm
Dir
 
Spd
km/h
Gust
km/h
Spd
kts
Gust
kts
26/11:30pm 12.9 10.0 6.7 66 3.0 S 11 13 6 7 1027.3 - 0.0
26/11:00pm 13.6 10.9 5.7 59 3.7 S 9 11 5 6 1027.4 - 0.0
26/10:30pm 14.2 9.5 5.3 55 4.2 SSW 19 28 10 15 1027.5 - 0.0
26/10:00pm 13.8 9.6 5.7 58 3.8 SE 17 22 9 12 1027.5 - 0.0
26/09:30pm 13.3 10.1 6.9 65 3.1 SSE 13 17 7 9 1027.5 - 0.0
26/09:00pm 13.4 10.9 8.3 71 2.5 SSE 11 15 6 8 1027.4 1027.2 0.0
26/08:30pm 13.8 10.2 8.2 69 2.8 SSE 17 26 9 14 1027.3 - 0.0
26/08:00pm 13.8 10.6 8.6 71 2.6 S 15 20 8 11 1027.1 - 0.0
26/07:30pm 13.7 10.9 8.5 71 2.6 SSE 13 15 7 8 1026.9 - 0.0
26/07:00pm 13.8 11.4 8.8 72 2.5 SSE 11 13 6 7 1026.6 - 0.0
26/06:30pm 14.3 11.2 7.4 63 3.4 SSE 13 17 7 9 1026.3 - 0.0
26/06:00pm 14.6 11.5 7.2 61 3.6 S 13 19 7 10 1026.1 1025.9 0.0
26/05:30pm 15.3 11.8 8.8 65 3.3 SSE 17 22 9 12 1025.7 - 0.0
26/05:00pm 16.0 11.6 9.0 63 3.6 SSE 22 30 12 16 1025.3 - 0.0
26/04:30pm 16.5 12.4 8.5 59 4.1 SSE 20 28 11 15 1025.0 - 0.0
26/04:00pm 17.3 12.5 8.7 57 4.4 S 24 33 13 18 1024.9 - 0.0
26/03:30pm 17.2 12.7 8.6 57 4.4 S 22 33 12 18 1024.6 - 0.0
26/03:00pm 16.9 11.6 8.6 58 4.2 S 26 33 14 18 1024.6 1024.4 0.0
26/02:30pm 17.6 12.6 7.9 53 4.9 S 24 32 13 17 1024.4 - 0.0
26/02:00pm 19.3 14.4 6.8 44 6.3 S 22 32 12 17 1024.2 - 0.0
26/01:30pm 17.5 12.4 7.5 52 5.0 S 24 33 13 18 1024.3 - 0.0
26/01:00pm 17.9 13.7 7.3 50 5.3 S 19 26 10 14 1024.6 - 0.0
26/12:30pm 17.4 13.6 7.5 52 5.0 S 17 24 9 13 1024.9 - 0.0
26/12:00pm 17.7 13.9 7.7 52 5.0 S 17 24 9 13 1025.2 1025.0 0.0
26/11:30am 17.7 13.9 7.4 51 5.2 S 17 22 9 12 1025.4 - 0.0
26/11:00am 17.7 13.6 8.6 55 4.7 SSE 20 30 11 16 1025.5 - 0.0
26/10:30am 17.2 12.8 8.9 58 4.3 S 22 30 12 16 1025.6 - 0.0
26/10:00am 16.3 12.3 10.4 68 3.1 S 22 30 12 16 1025.6 - 0.0
26/09:30am 15.2 11.1 10.0 71 2.7 S 22 30 12 16 1025.6 - 0.0
26/09:00am 14.1 10.6 10.9 81 1.7 S 20 26 11 14 1025.5 1025.3 0.6
26/08:30am 12.6 9.5 10.3 86 1.2 S 17 22 9 12 1025.5 - 0.6
26/08:00am 10.9 8.9 10.3 96 0.3 S 11 15 6 8 1025.3 - 0.6
26/07:30am 8.9 5.7 8.5 97 0.2 S 15 17 8 9 1024.9 - 0.6
26/07:00am 7.4 3.8 6.8 96 0.3 S 15 15 8 8 1024.5 - 0.6
26/06:30am 7.2 3.9 6.5 95 0.3 S 13 13 7 7 1024.3 - 0.6
26/06:00am 6.9 3.5 6.0 94 0.4 S 13 15 7 8 1023.9 1023.7 0.6
26/05:30am 7.8 4.2 6.9 94 0.4 S 15 17 8 9 1023.4 - 0.6
26/05:00am 8.0 4.5 7.1 94 0.4 S 15 17 8 9 1023.2 - 0.6
26/04:30am 8.3 4.8 7.1 92 0.6 S 15 17 8 9 1022.9 - 0.6
26/04:00am 9.3 5.9 7.7 90 0.8 S 15 17 8 9 1022.8 - 0.6
26/03:30am 9.4 6.0 7.8 90 0.8 S 15 17 8 9 1022.6 - 0.6
26/03:00am 9.2 5.6 6.8 85 1.1 S 15 17 8 9 1022.5 1022.4 0.6
26/02:30am 11.2 6.8 7.3 77 1.9 S 20 28 11 15 1022.4 - 0.6
26/02:00am 10.1 6.0 7.9 86 1.1 S 19 22 10 12 1022.6 - 0.6
26/01:30am 7.7 3.6 6.3 91 0.6 S 17 17 9 9 1022.7 - 0.6
26/01:00am 8.1 4.5 6.9 92 0.6 S 15 17 8 9 1022.6 - 0.6
26/12:30am 8.5 5.0 7.1 91 0.7 S 15 17 8 9 1022.6 - 0.6
26/12:00am 9.2 6.0 8.3 94 0.4 S 15 20 8 11 1022.4 1022.3 0.6

Other Formats:

Comma delimited format used in spreadsheet applications
http://www.bom.gov.au/fwo/IDS60801/IDS60801.94685.axf

JavaScript Object Notation format (JSON) in row-major order
http://www.bom.gov.au/fwo/IDS60801/IDS60801.94685.json